Pagrindinis puslapis
METAR-TAF:

METAR-TAF

Oro uostai :

Visbis, Gotlandas, Švedija

platuma: 57-40N, ilguma: 018-21E, Aukštis: 51 m

Dabartinis oras

Ataskaita buvo paskelbta 44 minutes, ne 02:20 UTC
Vėjas 11 kt iš Vakarų/Pietvakarių
Temperatūra 15°C
Drėgmė 72%
Slėgis 1014 hPa
Matomumas 10 km arba daugiau

METAR: ESSV 060220Z AUTO 25011KT 9999 FEW026/// 15/10 Q1014

Laikas: 05:04 (03:04 UTC)

Prognozė

Ataskaita buvo paskelbta 34 minutes, ne 02:30 UTC
Prognozė galioja nuo 06 metu 03 UTC su 06 metu 12 UTC
Vėjas 12 kt iš Vakarų/Pietvakarių
Matomumas 10 km arba daugiau
Mažai debesys ne aukštis 3000 ft

TAF: ESSV 060230Z 0603/0612 25012KT 9999 FEW030

Orai ataskaitas ir orų prognozės (METAR, TAF).

turimą stotys yra geltonos ir raudonos taškus žemėlapyje.

Perkelti pele per norėdami pamatyti stoties vardą.

Tada spustelėkite, norėdami matyti oro stebėjimo ir prognozės.

Norėdami pakeisti žemėlapį: spustelėkite ant žalios mygtukų su juodo kryžiaus žemyn,; žalią mygtuką su brūkšneliu, jei norite nutolinti; arba žalių rodyklių gretimoms žemėlapius.


METAR-TAF: